createdAt,value
2023-02-22T00:03:34.933Z,29.4
2023-02-22T00:09:27.043Z,26.8
2023-02-22T00:15:19.454Z,26.3
2023-02-22T00:21:12.877Z,27.9
2023-02-22T00:27:04.400Z,30.3
2023-02-22T00:32:42.184Z,27.6
2023-02-22T00:38:19.864Z,26.6
2023-02-22T00:44:11.793Z,26.3
2023-02-22T00:49:34.320Z,27.6
2023-02-22T00:55:27.405Z,29.9
2023-02-22T01:01:19.885Z,27.9
2023-02-22T01:07:13.669Z,26.6
2023-02-22T01:12:51.951Z,26.3
2023-02-22T01:18:29.135Z,27.5
2023-02-22T01:24:22.996Z,29.9
2023-02-22T01:35:53.221Z,26.6
2023-02-22T01:41:31.215Z,24.8
2023-02-22T01:47:09.244Z,24.3
2023-02-22T01:53:01.116Z,23.6
2023-02-22T01:58:52.869Z,24.3
2023-02-22T02:04:45.820Z,28.8
2023-02-22T02:10:38.467Z,30.8
2023-02-22T02:16:15.160Z,27.1
2023-02-22T02:21:37.633Z,25.4
2023-02-22T02:27:14.960Z,24.6
2023-02-22T02:33:07.615Z,23.9
2023-02-22T02:39:01.942Z,23.5
2023-02-22T02:44:23.318Z,26.8
2023-02-22T02:50:16.695Z,26.3
2023-02-22T02:56:10.217Z,28.1
2023-02-22T03:01:46.024Z,30.5
2023-02-22T03:07:39.585Z,27.5
2023-02-22T03:13:32.843Z,26.4
2023-02-22T03:19:25.279Z,24.7
2023-02-22T03:25:17.771Z,24
2023-02-22T03:31:10.156Z,23.5
2023-02-22T03:36:46.823Z,26.1
2023-02-22T03:42:24.900Z,29.1
2023-02-22T03:48:03.311Z,30.7
2023-02-22T03:53:55.950Z,27.2
2023-02-22T03:59:19.048Z,25.5
2023-02-22T04:05:13.120Z,24.6
2023-02-22T04:10:34.116Z,23.9
2023-02-22T04:16:26.513Z,23.5
2023-02-22T04:22:20.118Z,26.4
2023-02-22T04:28:11.509Z,29.3
2023-02-22T04:33:49.009Z,30.4
2023-02-22T04:39:28.229Z,27.1
2023-02-22T04:45:04.477Z,25.6
2023-02-22T04:50:59.393Z,24.6
2023-02-22T04:56:53.271Z,23.7
2023-02-22T05:02:45.615Z,23.2
2023-02-22T05:08:21.947Z,26.8
2023-02-22T05:13:44.824Z,29.4
2023-02-22T05:19:36.973Z,30.8
2023-02-22T05:25:29.630Z,27.3
2023-02-22T05:31:23.727Z,25.5
2023-02-22T05:37:17.292Z,24.6
2023-02-22T05:43:09.003Z,23.9
2023-02-22T05:48:47.913Z,23.5
2023-02-22T05:54:41.471Z,27.1
2023-02-22T06:00:34.250Z,26.7
2023-02-22T06:06:11.834Z,27.5
2023-02-22T06:12:03.213Z,30.1
2023-02-22T06:17:55.584Z,27.9
2023-02-22T06:23:33.628Z,26.6
2023-02-22T06:29:10.597Z,24.8
2023-02-22T06:34:48.064Z,24.3
2023-02-22T06:40:25.848Z,23.6
2023-02-22T06:46:03.344Z,23.5
2023-02-22T06:51:42.220Z,28.8
2023-02-22T06:57:20.218Z,30.9
2023-02-22T07:02:57.247Z,27.4
2023-02-22T07:08:35.698Z,26.6
2023-02-22T07:14:16.294Z,26.6
2023-02-22T07:19:53.699Z,30.1
2023-02-22T07:25:16.170Z,28.4
2023-02-22T07:31:10.418Z,26.8
2023-02-22T07:37:04.044Z,26.3
2023-02-22T07:42:57.736Z,29.2
2023-02-22T07:48:51.501Z,30.3
2023-02-22T07:54:43.613Z,27
2023-02-22T08:00:35.061Z,26.3
2023-02-22T08:06:28.415Z,28.1
2023-02-22T08:12:20.821Z,31.2
2023-02-22T08:17:58.521Z,27.2
2023-02-22T08:23:52.570Z,26.3
2023-02-22T08:29:45.705Z,26.8
2023-02-22T08:35:43.526Z,30.9
2023-02-22T08:41:36.954Z,27.4
2023-02-22T08:47:29.957Z,26.3
2023-02-22T08:53:23.469Z,25.5
2023-02-22T08:59:17.049Z,30.8
2023-02-22T09:05:22.808Z,27.5
2023-02-22T09:11:15.281Z,26.2
2023-02-22T09:17:12.479Z,25.8
2023-02-22T09:23:14.082Z,31.4
2023-02-22T09:29:13.107Z,27.1
2023-02-22T09:34:54.708Z,26
2023-02-22T09:40:48.427Z,25.8
2023-02-22T09:46:40.822Z,25.5
2023-02-22T09:52:35.351Z,25.3
2023-02-22T09:58:12.871Z,25.1
2023-02-22T10:04:05.490Z,24.8
2023-02-22T10:09:43.980Z,24.6
2023-02-22T10:14:34.130Z,24.4
2023-02-22T10:20:27.689Z,24.1
2023-02-22T10:26:05.931Z,23.9
2023-02-22T10:32:05.245Z,23.7
2023-02-22T10:37:59.239Z,23.4
2023-02-22T10:43:22.739Z,23.3
2023-02-22T10:49:01.743Z,23.1
2023-02-22T10:54:38.760Z,22.9
2023-02-22T11:00:21.191Z,22.8
2023-02-22T11:05:58.369Z,22.6
2023-02-22T11:11:36.759Z,22.4
2023-02-22T11:17:00.292Z,22.3
2023-02-22T11:22:39.374Z,22.2
2023-02-22T11:28:25.229Z,22.1
2023-02-22T11:34:20.334Z,21.9
2023-02-22T11:39:56.233Z,21.9
2023-02-22T11:45:56.686Z,21.8
2023-02-22T11:51:37.202Z,21.7
2023-02-22T11:57:27.402Z,21.6
2023-02-22T12:03:13.185Z,21.5
2023-02-22T12:09:13.342Z,21.4
2023-02-22T12:15:06.220Z,21.3
2023-02-22T12:21:08.740Z,21.2
2023-02-22T12:32:55.781Z,21
2023-02-22T12:38:17.652Z,20.9
2023-02-22T12:44:23.177Z,20.9
2023-02-22T12:50:16.065Z,20.9
2023-02-22T12:56:20.305Z,20.8
2023-02-22T13:01:42.605Z,20.8
2023-02-22T13:07:48.731Z,20.8
2023-02-22T13:13:41.824Z,20.8
2023-02-22T13:19:35.582Z,20.7
2023-02-22T13:24:58.349Z,20.7
2023-02-22T13:31:05.530Z,20.6
2023-02-22T13:36:45.408Z,20.6
2023-02-22T13:42:38.858Z,20.6
2023-02-22T13:48:31.559Z,20.5
2023-02-22T13:54:29.845Z,20.5
2023-02-22T14:00:25.555Z,20.5
2023-02-22T14:06:20.048Z,20.4
2023-02-22T14:12:00.761Z,20.4
2023-02-22T14:18:01.520Z,20.4
2023-02-22T14:23:54.930Z,20.4
2023-02-22T14:29:58.077Z,20.4
2023-02-22T14:36:23.257Z,20.4
2023-02-22T14:42:18.247Z,20.4
2023-02-22T14:48:15.148Z,20.4
2023-02-22T14:54:21.483Z,20.3
2023-02-22T14:59:59.157Z,20.3
2023-02-22T15:06:18.983Z,20.3
2023-02-22T15:12:14.458Z,20.3
2023-02-22T15:18:18.079Z,20.3
2023-02-22T15:24:14.044Z,20.3
2023-02-22T15:30:03.836Z,20.3
2023-02-22T15:36:18.761Z,20.3
2023-02-22T15:42:13.093Z,20.3
2023-02-22T15:48:15.587Z,20.3
2023-02-22T15:54:11.151Z,20.2
2023-02-22T15:59:56.666Z,20.2
2023-02-22T16:06:00.467Z,20.2
2023-02-22T16:11:54.207Z,20.2
2023-02-22T16:18:17.892Z,20.1
2023-02-22T16:24:26.541Z,20.1
2023-02-22T16:30:08.025Z,20.1
2023-02-22T16:35:55.914Z,20
2023-02-22T16:41:49.679Z,20.1
2023-02-22T16:47:27.361Z,20
2023-02-22T16:53:05.947Z,20.1
2023-02-22T16:58:44.058Z,20.1
2023-02-22T17:04:36.394Z,20
2023-02-22T17:10:29.066Z,20
2023-02-22T17:16:23.423Z,19.9
2023-02-22T17:22:00.355Z,19.9
2023-02-22T17:27:38.963Z,19.9
2023-02-22T17:33:16.452Z,19.9
2023-02-22T17:39:11.181Z,19.9
2023-02-22T17:45:04.711Z,19.9
2023-02-22T17:50:57.421Z,19.9
2023-02-22T17:57:14.940Z,19.9
2023-02-22T18:02:53.637Z,19.9
2023-02-22T18:08:15.464Z,19.9
2023-02-22T18:13:53.097Z,19.8
2023-02-22T18:19:31.154Z,19.8
2023-02-22T18:25:25.160Z,19.8
2023-02-22T18:31:30.492Z,19.8
2023-02-22T18:37:24.825Z,19.8
2023-02-22T18:43:18.181Z,19.8
2023-02-22T18:49:12.349Z,19.8
2023-02-22T18:55:09.666Z,19.8
2023-02-22T19:01:03.675Z,19.8
2023-02-22T19:06:58.448Z,19.8
2023-02-22T19:12:52.571Z,19.8
2023-02-22T19:18:48.728Z,19.7
2023-02-22T19:24:45.699Z,19.7
2023-02-22T19:30:39.134Z,19.7
2023-02-22T19:36:35.263Z,19.7
2023-02-22T19:42:32.420Z,19.7
2023-02-22T19:48:26.662Z,19.7
2023-02-22T19:54:20.627Z,19.6
2023-02-22T20:00:14.013Z,19.6
2023-02-22T20:06:09.111Z,19.6
2023-02-22T20:12:02.494Z,19.6
2023-02-22T20:17:39.264Z,19.6
2023-02-22T20:23:33.821Z,19.6
2023-02-22T20:29:14.508Z,19.6
2023-02-22T20:35:10.388Z,19.6
2023-02-22T20:40:48.759Z,19.6
2023-02-22T20:46:25.360Z,19.6
2023-02-22T20:52:18.888Z,19.6
2023-02-22T20:58:15.304Z,19.6
2023-02-22T21:04:08.432Z,19.2
2023-02-22T21:10:03.655Z,26.1
2023-02-22T21:16:00.401Z,28.7
2023-02-22T21:21:54.023Z,30.2
2023-02-22T21:27:30.991Z,31
2023-02-22T21:33:40.867Z,28.9
2023-02-22T21:39:33.232Z,29.7
2023-02-22T21:45:26.522Z,31.3
2023-02-22T21:51:20.178Z,27
2023-02-22T21:57:13.016Z,28.6
2023-02-22T22:03:06.128Z,30.7
2023-02-22T22:08:59.844Z,31.9
2023-02-22T22:14:58.544Z,27
2023-02-22T22:20:50.612Z,30.3
2023-02-22T22:26:44.862Z,31.3
2023-02-22T22:32:37.735Z,27
2023-02-22T22:38:14.528Z,28.5
2023-02-22T22:43:52.691Z,30.8
2023-02-22T22:49:30.344Z,29.3
2023-02-22T22:55:24.455Z,26.7
2023-02-22T23:01:18.284Z,28.7
2023-02-22T23:07:12.347Z,30.9
2023-02-22T23:13:05.179Z,27.9
2023-02-22T23:18:59.613Z,26.4
2023-02-22T23:24:51.490Z,29.6
2023-02-22T23:30:27.913Z,31.4
2023-02-22T23:36:23.633Z,27.2
2023-02-22T23:42:18.405Z,25.6
2023-02-22T23:47:56.029Z,24.6
2023-02-22T23:53:35.069Z,24.1
2023-02-22T23:59:27.061Z,23.6
